createdAt,value
2023-02-14T00:00:18.909Z,0.00
2023-02-14T00:01:18.957Z,0.00
2023-02-14T00:02:18.915Z,0.00
2023-02-14T00:03:18.988Z,0.00
2023-02-14T00:04:18.932Z,0.00
2023-02-14T00:05:18.900Z,0.00
2023-02-14T00:06:18.861Z,0.00
2023-02-14T00:07:18.970Z,0.00
2023-02-14T00:08:18.839Z,0.00
2023-02-14T00:09:18.917Z,0.00
2023-02-14T00:10:18.819Z,0.00
2023-02-14T00:11:18.856Z,0.00
2023-02-14T00:12:18.812Z,0.00
2023-02-14T00:13:18.839Z,0.00
2023-02-14T00:14:18.772Z,0.00
2023-02-14T00:15:18.870Z,0.00
2023-02-14T00:16:18.817Z,0.00
2023-02-14T00:17:18.819Z,0.00
2023-02-14T00:18:19.775Z,0.00
2023-02-14T00:19:18.782Z,0.00
2023-02-14T00:20:18.704Z,0.00
2023-02-14T00:21:18.813Z,0.00
2023-02-14T00:22:18.697Z,0.00
2023-02-14T00:23:18.741Z,0.00
2023-02-14T00:24:18.654Z,0.00
2023-02-14T00:25:19.742Z,0.00
2023-02-14T00:26:18.629Z,0.00
2023-02-14T00:27:21.773Z,0.00
2023-02-14T00:28:18.619Z,0.00
2023-02-14T00:30:28.392Z,0.00
2023-02-14T00:31:28.280Z,0.00
2023-02-14T00:32:28.241Z,0.00
2023-02-14T00:33:28.096Z,0.00
2023-02-14T00:34:28.278Z,0.00
2023-02-14T00:35:28.074Z,0.00
2023-02-14T00:36:30.164Z,0.00
2023-02-14T00:37:28.073Z,0.00
2023-02-14T00:38:29.163Z,0.00
2023-02-14T00:39:28.035Z,0.00
2023-02-14T00:40:28.142Z,0.00
2023-02-14T00:41:28.013Z,0.00
2023-02-14T00:42:28.119Z,0.00
2023-02-14T00:43:27.996Z,0.00
2023-02-14T00:44:28.073Z,0.00
2023-02-14T00:45:27.999Z,0.00
2023-02-14T00:46:27.997Z,0.00
2023-02-14T00:47:27.967Z,0.00
2023-02-14T00:48:27.992Z,0.00
2023-02-14T00:49:27.926Z,0.00
2023-02-14T00:50:28.006Z,0.00
2023-02-14T00:51:27.918Z,0.00
2023-02-14T00:52:27.975Z,0.00
2023-02-14T00:53:27.883Z,0.00
2023-02-14T00:54:27.940Z,0.00
2023-02-14T00:55:27.869Z,0.00
2023-02-14T00:56:27.940Z,0.00
2023-02-14T00:57:27.866Z,0.00
2023-02-14T00:58:27.853Z,0.00
2023-02-14T00:59:27.817Z,0.00
2023-02-14T01:00:27.870Z,0.00
2023-02-14T01:01:27.884Z,0.00
2023-02-14T01:02:27.963Z,0.00
2023-02-14T01:03:27.794Z,0.00
2023-02-14T01:04:27.792Z,0.00
2023-02-14T01:05:27.754Z,0.00
2023-02-14T01:06:27.809Z,0.00
2023-02-14T01:07:27.750Z,0.00
2023-02-14T01:08:27.821Z,0.00
2023-02-14T01:09:27.736Z,0.00
2023-02-14T01:10:27.730Z,0.00
2023-02-14T01:11:30.113Z,0.00
2023-02-14T01:12:27.814Z,0.00
2023-02-14T01:13:27.672Z,0.00
2023-02-14T01:14:27.761Z,0.00
2023-02-14T01:15:27.655Z,0.00
2023-02-14T01:16:27.735Z,0.00
2023-02-14T01:17:27.647Z,0.00
2023-02-14T01:18:27.792Z,0.00
2023-02-14T01:19:27.604Z,0.00
2023-02-14T01:20:27.703Z,0.00
2023-02-14T01:21:27.606Z,0.00
2023-02-14T01:22:27.665Z,0.00
2023-02-14T01:23:27.565Z,0.00
2023-02-14T01:24:28.656Z,0.00
2023-02-14T01:25:27.541Z,0.00
2023-02-14T01:26:27.650Z,0.00
2023-02-14T01:27:27.543Z,0.00
2023-02-14T01:28:29.610Z,0.00
2023-02-14T01:29:27.502Z,0.00
2023-02-14T01:30:29.580Z,0.00
2023-02-14T01:31:27.590Z,0.00
2023-02-14T01:32:27.532Z,0.00
2023-02-14T01:33:27.463Z,0.00
2023-02-14T01:34:27.513Z,0.00
2023-02-14T01:35:27.435Z,0.00
2023-02-14T01:36:27.503Z,0.00
2023-02-14T01:37:27.450Z,0.00
2023-02-14T01:38:27.520Z,0.00
2023-02-14T01:39:27.394Z,0.00
2023-02-14T01:40:27.430Z,0.00
2023-02-14T01:41:27.376Z,0.00
2023-02-14T01:42:27.401Z,0.00
2023-02-14T01:43:27.359Z,0.00
2023-02-14T01:44:27.366Z,0.00
2023-02-14T01:45:27.354Z,0.00
2023-02-14T01:46:27.391Z,0.00
2023-02-14T01:47:27.342Z,0.00
2023-02-14T01:48:27.393Z,0.00
2023-02-14T01:49:27.308Z,0.00
2023-02-14T01:50:27.333Z,0.00
2023-02-14T01:51:27.271Z,0.00
2023-02-14T01:52:27.315Z,0.00
2023-02-14T01:53:27.287Z,0.00
2023-02-14T01:54:27.330Z,0.00
2023-02-14T01:55:27.249Z,0.00
2023-02-14T01:56:27.246Z,0.00
2023-02-14T01:57:27.206Z,0.00
2023-02-14T01:58:27.309Z,0.00
2023-02-14T01:59:27.186Z,0.00
2023-02-14T02:00:27.269Z,0.00
2023-02-14T02:01:27.233Z,0.00
2023-02-14T02:02:27.224Z,0.00
2023-02-14T02:03:27.182Z,0.00
2023-02-14T02:04:27.217Z,0.00
2023-02-14T02:05:27.127Z,0.00
2023-02-14T02:06:27.316Z,0.00
2023-02-14T02:07:27.108Z,0.00
2023-02-14T02:08:27.172Z,0.00
2023-02-14T02:09:27.089Z,0.00
2023-02-14T02:10:27.133Z,0.00
2023-02-14T02:11:27.098Z,0.00
2023-02-14T02:12:28.721Z,0.00
2023-02-14T02:13:27.067Z,0.00
2023-02-14T02:14:48.048Z,0.00
2023-02-14T02:15:27.015Z,0.00
2023-02-14T02:17:36.652Z,0.00
2023-02-14T02:18:36.575Z,0.00
2023-02-14T02:19:36.616Z,0.00
2023-02-14T02:20:36.529Z,0.00
2023-02-14T02:21:36.642Z,0.00
2023-02-14T02:22:36.510Z,0.00
2023-02-14T02:23:36.590Z,0.00
2023-02-14T02:24:36.490Z,0.00
2023-02-14T02:25:36.559Z,0.00
2023-02-14T02:26:36.475Z,0.00
2023-02-14T02:27:36.574Z,0.00
2023-02-14T02:28:36.484Z,0.00
2023-02-14T02:29:36.481Z,0.00
2023-02-14T02:30:36.759Z,0.00
2023-02-14T02:31:38.614Z,0.00
2023-02-14T02:32:36.402Z,0.00
2023-02-14T02:33:36.482Z,0.00
2023-02-14T02:34:36.380Z,0.00
2023-02-14T02:35:36.417Z,0.00
2023-02-14T02:36:36.372Z,0.00
2023-02-14T02:37:36.501Z,0.00
2023-02-14T02:38:36.360Z,0.00
2023-02-14T02:39:36.342Z,0.00
2023-02-14T02:40:36.344Z,0.00
2023-02-14T02:41:36.357Z,0.00
2023-02-14T02:42:36.295Z,0.00
2023-02-14T02:43:36.319Z,0.00
2023-02-14T02:44:36.293Z,0.00
2023-02-14T02:45:36.286Z,0.00
2023-02-14T02:46:36.277Z,0.00
2023-02-14T02:47:36.303Z,0.00
2023-02-14T02:48:36.261Z,0.00
2023-02-14T02:49:36.314Z,0.00
2023-02-14T02:50:36.210Z,0.00
2023-02-14T02:51:36.227Z,0.00
2023-02-14T02:52:36.188Z,0.00
2023-02-14T02:53:36.307Z,0.00
2023-02-14T02:54:36.169Z,0.00
2023-02-14T02:55:36.252Z,0.00
2023-02-14T02:56:36.161Z,0.00
2023-02-14T02:57:36.179Z,0.00
2023-02-14T02:58:36.162Z,0.00
2023-02-14T02:59:36.179Z,0.00
2023-02-14T03:00:36.103Z,0.00
2023-02-14T03:01:36.331Z,0.00
2023-02-14T03:02:36.085Z,0.00
2023-02-14T03:03:36.172Z,0.00
2023-02-14T03:04:36.075Z,0.00
2023-02-14T03:05:36.142Z,0.00
2023-02-14T03:06:36.048Z,0.00
2023-02-14T03:07:36.158Z,0.00
2023-02-14T03:08:36.035Z,0.00
2023-02-14T03:09:36.057Z,0.00
2023-02-14T03:10:36.025Z,0.00
2023-02-14T03:11:36.055Z,0.00
2023-02-14T03:12:35.978Z,0.00
2023-02-14T03:13:36.056Z,0.00
2023-02-14T03:14:35.955Z,0.00
2023-02-14T03:15:36.004Z,0.00
2023-02-14T03:16:35.936Z,0.00
2023-02-14T03:17:37.940Z,0.00
2023-02-14T03:18:35.928Z,0.00
2023-02-14T03:19:36.945Z,0.00
2023-02-14T03:20:35.890Z,0.00
2023-02-14T03:21:35.918Z,0.00
2023-02-14T03:22:35.883Z,0.00
2023-02-14T03:23:35.987Z,0.00
2023-02-14T03:24:35.843Z,0.00
2023-02-14T03:25:35.972Z,0.00
2023-02-14T03:26:35.824Z,0.00
2023-02-14T03:27:35.858Z,0.00
2023-02-14T03:28:35.827Z,0.00
2023-02-14T03:29:35.870Z,0.00
2023-02-14T03:30:35.784Z,0.00
2023-02-14T03:31:36.018Z,0.00
2023-02-14T03:32:35.786Z,0.00
2023-02-14T03:33:35.848Z,0.00
2023-02-14T03:34:35.752Z,0.00
2023-02-14T03:35:35.809Z,0.00
2023-02-14T03:36:35.718Z,0.00
2023-02-14T03:37:35.723Z,0.00
2023-02-14T03:38:35.731Z,0.00
2023-02-14T03:39:35.737Z,0.00
2023-02-14T03:40:35.683Z,0.00
2023-02-14T03:41:35.768Z,0.00
2023-02-14T03:42:35.656Z,0.00
2023-02-14T03:43:35.732Z,0.00
2023-02-14T03:44:35.639Z,0.00
2023-02-14T03:45:35.737Z,0.00
2023-02-14T03:46:35.651Z,0.00
2023-02-14T03:47:35.694Z,0.00
2023-02-14T03:48:35.605Z,0.00
2023-02-14T03:49:35.605Z,0.00
2023-02-14T03:50:35.573Z,0.00
2023-02-14T03:51:35.631Z,0.00
2023-02-14T03:52:35.549Z,0.00
2023-02-14T03:53:35.579Z,0.00
2023-02-14T03:54:35.522Z,0.00
2023-02-14T03:55:35.539Z,0.00
2023-02-14T03:56:35.507Z,0.00
2023-02-14T03:57:35.571Z,0.00
2023-02-14T03:58:35.504Z,0.00
2023-02-14T03:59:35.569Z,0.00
2023-02-14T04:00:35.461Z,0.00
2023-02-14T04:01:35.515Z,0.00
2023-02-14T04:02:35.449Z,0.00
2023-02-14T04:03:35.601Z,0.00
2023-02-14T04:04:35.418Z,0.00
2023-02-14T04:05:36.426Z,0.00
2023-02-14T04:06:35.398Z,0.00
2023-02-14T04:07:35.421Z,0.00
2023-02-14T04:08:35.411Z,0.00
2023-02-14T04:09:35.434Z,0.00
2023-02-14T04:10:35.355Z,0.00
2023-02-14T04:11:36.366Z,0.00
2023-02-14T04:12:37.959Z,0.00
2023-02-14T04:13:35.432Z,0.00
2023-02-14T04:14:35.336Z,0.00
2023-02-14T04:15:35.426Z,0.00
2023-02-14T04:16:35.292Z,0.00
2023-02-14T04:17:35.384Z,0.00
2023-02-14T04:18:35.293Z,0.00
2023-02-14T04:19:35.297Z,0.00
2023-02-14T04:20:35.264Z,0.00
2023-02-14T04:21:35.309Z,0.00
2023-02-14T04:22:35.225Z,0.00
2023-02-14T04:23:35.284Z,0.00
2023-02-14T04:24:35.205Z,0.00
2023-02-14T04:25:35.231Z,0.00
2023-02-14T04:26:35.196Z,0.00
2023-02-14T04:27:35.247Z,0.00
2023-02-14T04:28:35.202Z,0.00
2023-02-14T04:29:35.276Z,0.00
2023-02-14T04:30:35.136Z,0.00
2023-02-14T04:31:35.266Z,0.00
2023-02-14T04:32:35.118Z,0.00
2023-02-14T04:33:35.239Z,0.00
2023-02-14T04:34:35.097Z,0.00
2023-02-14T04:35:35.215Z,0.00
2023-02-14T04:36:35.072Z,0.00
2023-02-14T04:37:35.109Z,0.00
2023-02-14T04:38:35.082Z,0.00
2023-02-14T04:39:35.125Z,0.00
2023-02-14T04:40:35.031Z,0.00
2023-02-14T04:41:35.140Z,0.00
2023-02-14T04:42:35.019Z,0.00
2023-02-14T04:43:35.123Z,0.00
2023-02-14T04:44:34.994Z,0.00
2023-02-14T04:45:35.093Z,0.00
2023-02-14T04:46:35.042Z,0.00
2023-02-14T04:47:56.069Z,0.00
2023-02-14T04:48:34.961Z,0.00
2023-02-14T04:49:37.041Z,0.00
2023-02-14T04:50:34.936Z,0.00
2023-02-14T04:51:35.005Z,0.00
2023-02-14T04:52:34.905Z,0.00
2023-02-14T04:53:34.968Z,0.00
2023-02-14T04:54:34.884Z,0.00
2023-02-14T04:55:34.931Z,0.00
2023-02-14T04:56:34.874Z,0.00
2023-02-14T04:57:36.897Z,0.00
2023-02-14T04:58:34.862Z,0.00
2023-02-14T04:59:34.860Z,0.00
2023-02-14T05:00:34.936Z,0.00
2023-02-14T05:01:34.886Z,0.00
2023-02-14T05:02:34.798Z,0.00
2023-02-14T05:03:34.831Z,0.00
2023-02-14T05:04:34.781Z,0.00
2023-02-14T05:05:34.832Z,0.00
2023-02-14T05:06:34.756Z,0.00
2023-02-14T05:07:34.808Z,0.00
2023-02-14T05:08:34.741Z,0.00
2023-02-14T05:09:34.774Z,0.00
2023-02-14T05:10:34.718Z,0.00
2023-02-14T05:11:34.727Z,0.00
2023-02-14T05:12:34.690Z,0.00
2023-02-14T05:13:34.744Z,0.00
2023-02-14T05:14:34.687Z,0.00
2023-02-14T05:15:36.263Z,0.00
2023-02-14T05:16:34.684Z,0.00
2023-02-14T05:17:34.705Z,0.00
2023-02-14T05:18:34.654Z,0.00
2023-02-14T05:19:34.731Z,0.00
2023-02-14T05:20:34.606Z,0.00
2023-02-14T05:21:34.694Z,0.00
2023-02-14T05:22:34.584Z,0.00
2023-02-14T05:23:34.603Z,0.00
2023-02-14T05:24:34.586Z,0.00
2023-02-14T05:25:34.620Z,0.00
2023-02-14T05:26:34.545Z,0.00
2023-02-14T05:27:34.635Z,0.00
2023-02-14T05:28:34.513Z,0.00
2023-02-14T05:29:34.593Z,0.00
2023-02-14T05:30:34.662Z,0.00
2023-02-14T05:31:34.781Z,0.00
2023-02-14T05:32:34.474Z,0.00
2023-02-14T05:33:34.604Z,0.00
2023-02-14T05:34:34.488Z,0.00
2023-02-14T05:35:34.483Z,0.00
2023-02-14T05:36:34.429Z,0.00
2023-02-14T05:37:34.505Z,0.00
2023-02-14T05:38:34.412Z,0.00
2023-02-14T05:39:34.481Z,0.00
2023-02-14T05:40:34.404Z,0.00
2023-02-14T05:41:34.423Z,0.00
2023-02-14T05:42:34.375Z,0.00
2023-02-14T05:43:34.446Z,0.00
2023-02-14T05:44:34.366Z,0.00
2023-02-14T05:45:34.378Z,0.00
2023-02-14T05:46:34.327Z,0.00
2023-02-14T05:47:34.366Z,0.00
2023-02-14T05:48:34.317Z,0.00
2023-02-14T05:49:34.340Z,0.00
2023-02-14T05:50:34.285Z,0.00
2023-02-14T05:51:34.307Z,0.00
2023-02-14T05:52:34.275Z,0.00
2023-02-14T05:53:34.303Z,0.00
2023-02-14T05:54:34.262Z,0.00
2023-02-14T05:55:34.336Z,0.00
2023-02-14T05:56:34.240Z,0.00
2023-02-14T05:57:34.237Z,0.00
2023-02-14T05:58:34.232Z,0.00
2023-02-14T05:59:34.296Z,0.00
2023-02-14T06:00:34.179Z,0.00
2023-02-14T06:01:34.256Z,0.00
2023-02-14T06:02:34.213Z,0.00
2023-02-14T06:03:34.170Z,0.00
2023-02-14T06:04:34.182Z,0.00
2023-02-14T06:05:34.212Z,0.00
2023-02-14T06:06:36.526Z,0.00
2023-02-14T06:07:34.197Z,0.00
2023-02-14T06:08:34.099Z,0.00
2023-02-14T06:09:34.163Z,4.00
2023-02-14T06:10:34.084Z,4.00
2023-02-14T06:11:34.127Z,0.00
2023-02-14T06:12:34.060Z,4.00
2023-02-14T06:13:34.143Z,4.00
2023-02-14T06:14:34.063Z,4.00
2023-02-14T06:15:34.050Z,4.00
2023-02-14T06:16:34.132Z,8.00
2023-02-14T06:17:34.062Z,8.00
2023-02-14T06:18:33.998Z,4.00
2023-02-14T06:19:34.027Z,8.00
2023-02-14T06:20:33.969Z,12.00
2023-02-14T06:21:36.097Z,8.00
2023-02-14T06:22:33.981Z,16.00
2023-02-14T06:23:36.057Z,16.00
2023-02-14T06:24:33.948Z,20.00
2023-02-14T06:25:35.057Z,20.00
2023-02-14T06:26:33.915Z,24.00
2023-02-14T06:27:33.948Z,28.00
2023-02-14T06:28:33.896Z,36.00
2023-02-14T06:29:33.994Z,40.00
2023-02-14T06:30:34.019Z,44.00
2023-02-14T06:31:34.982Z,52.00
2023-02-14T06:32:33.846Z,60.00
2023-02-14T06:33:33.870Z,68.00
2023-02-14T06:34:33.845Z,80.00
2023-02-14T06:35:33.880Z,88.00
2023-02-14T06:36:33.800Z,100.00
2023-02-14T06:37:33.915Z,108.00
2023-02-14T06:38:33.879Z,120.00
2023-02-14T06:39:34.578Z,136.00
2023-02-14T06:40:33.762Z,152.00
2023-02-14T06:41:33.751Z,164.00
2023-02-14T06:42:33.839Z,184.00
2023-02-14T06:43:33.747Z,200.00
2023-02-14T06:44:33.916Z,220.00
2023-02-14T06:45:33.705Z,240.00
2023-02-14T06:46:33.867Z,264.00
2023-02-14T06:47:35.074Z,284.00
2023-02-14T06:48:33.877Z,308.00
2023-02-14T06:49:33.691Z,328.00
2023-02-14T06:50:33.703Z,360.00
2023-02-14T06:51:33.639Z,384.00
2023-02-14T06:52:33.731Z,412.00
2023-02-14T06:53:33.640Z,440.00
2023-02-14T06:54:33.661Z,472.00
2023-02-14T06:55:33.598Z,504.00
2023-02-14T06:56:33.622Z,532.00
2023-02-14T06:57:33.577Z,560.00
2023-02-14T06:58:33.650Z,592.00
2023-02-14T06:59:33.601Z,628.00
2023-02-14T07:00:33.665Z,668.00
2023-02-14T07:01:33.635Z,708.00
2023-02-14T07:02:33.615Z,740.00
2023-02-14T07:03:33.624Z,784.00
2023-02-14T07:04:33.716Z,820.00
2023-02-14T07:05:33.496Z,860.00
2023-02-14T07:06:33.603Z,896.00
2023-02-14T07:07:33.483Z,936.00
2023-02-14T07:08:33.507Z,980.00
2023-02-14T07:09:33.503Z,1004.00
2023-02-14T07:10:33.533Z,1028.00
2023-02-14T07:11:33.428Z,1088.00
2023-02-14T07:12:33.558Z,1136.00
2023-02-14T07:13:33.415Z,1176.00
2023-02-14T07:14:35.446Z,1216.00
2023-02-14T07:15:33.487Z,1272.00
2023-02-14T07:16:33.447Z,1340.00
2023-02-14T07:17:33.368Z,1376.00
2023-02-14T07:18:34.396Z,1440.00
2023-02-14T07:19:33.385Z,1512.00
2023-02-14T07:20:33.391Z,1560.00
2023-02-14T07:21:33.331Z,1580.00
2023-02-14T07:22:33.409Z,1632.00
2023-02-14T07:23:33.307Z,1724.00
2023-02-14T07:24:33.355Z,1776.00
2023-02-14T07:25:33.307Z,1836.00
2023-02-14T07:26:33.329Z,1912.00
2023-02-14T07:27:33.256Z,1968.00
2023-02-14T07:28:33.326Z,1968.00
2023-02-14T07:29:33.257Z,2012.00
2023-02-14T07:30:33.373Z,2096.00
2023-02-14T07:31:33.300Z,2180.00
2023-02-14T07:32:33.269Z,2304.00
2023-02-14T07:33:33.204Z,2376.00
2023-02-14T07:34:33.225Z,2444.00
2023-02-14T07:35:33.181Z,2504.00
2023-02-14T07:36:33.193Z,2560.00
2023-02-14T07:37:33.172Z,2556.00
2023-02-14T07:38:33.219Z,2536.00
2023-02-14T07:39:33.167Z,2668.00
2023-02-14T07:40:33.222Z,2724.00
2023-02-14T07:41:33.161Z,2872.00
2023-02-14T07:42:33.115Z,2988.00
2023-02-14T07:43:33.114Z,3052.00
2023-02-14T07:44:33.200Z,3060.00
2023-02-14T07:45:33.078Z,3120.00
2023-02-14T07:46:33.217Z,3144.00
2023-02-14T07:47:33.050Z,3252.00
2023-02-14T07:48:34.388Z,3232.00
2023-02-14T07:49:33.058Z,3356.00
2023-02-14T07:50:33.064Z,3516.00
2023-02-14T07:51:33.019Z,3612.00
2023-02-14T07:52:33.104Z,3744.00
2023-02-14T07:53:33.016Z,3804.00
2023-02-14T07:54:33.060Z,3992.00
2023-02-14T07:55:32.985Z,4140.00
2023-02-14T07:56:33.021Z,4376.00
2023-02-14T07:57:32.964Z,4316.00
2023-02-14T07:58:33.022Z,4392.00
2023-02-14T07:59:32.953Z,4532.00
2023-02-14T08:00:32.947Z,4780.00
2023-02-14T08:01:32.935Z,4884.00
2023-02-14T08:02:34.999Z,4872.00
2023-02-14T08:03:32.898Z,5072.00
2023-02-14T08:04:34.017Z,5096.00
2023-02-14T08:05:32.853Z,5336.00
2023-02-14T08:06:32.885Z,5392.00
2023-02-14T08:07:32.833Z,5304.00
2023-02-14T08:08:32.890Z,5288.00
2023-02-14T08:09:32.833Z,5312.00
2023-02-14T08:10:32.903Z,5360.00
2023-02-14T08:11:32.792Z,5784.00
2023-02-14T08:12:32.809Z,5924.00
2023-02-14T08:13:32.794Z,5996.00
2023-02-14T08:14:32.864Z,5980.00
2023-02-14T08:15:32.764Z,6060.00
2023-02-14T08:16:32.876Z,6176.00
2023-02-14T08:17:32.725Z,6272.00
2023-02-14T08:18:32.745Z,6432.00
2023-02-14T08:19:32.697Z,6488.00
2023-02-14T08:20:32.818Z,6612.00
2023-02-14T08:21:32.681Z,6960.00
2023-02-14T08:22:32.775Z,6988.00
2023-02-14T08:23:32.661Z,7060.00
2023-02-14T08:24:32.688Z,7100.00
2023-02-14T08:25:32.671Z,7200.00
2023-02-14T08:26:32.729Z,7668.00
2023-02-14T08:27:32.621Z,8140.00
2023-02-14T08:28:32.712Z,8368.00
2023-02-14T08:29:32.610Z,8180.00
2023-02-14T08:30:32.749Z,7996.00
2023-02-14T08:31:35.939Z,8332.00
2023-02-14T08:32:32.865Z,8384.00
2023-02-14T08:33:32.553Z,8760.00
2023-02-14T08:34:32.667Z,9252.00
2023-02-14T08:35:32.546Z,9256.00
2023-02-14T08:36:32.567Z,8804.00
2023-02-14T08:37:32.510Z,8912.00
2023-02-14T08:38:32.575Z,9052.00
2023-02-14T08:39:32.496Z,9476.00
2023-02-14T08:40:32.536Z,10220.00
2023-02-14T08:41:32.479Z,10588.00
2023-02-14T08:42:32.504Z,10544.00
2023-02-14T08:43:34.268Z,10780.00
2023-02-14T08:44:33.558Z,11024.00
2023-02-14T08:45:32.492Z,11252.00
2023-02-14T08:46:33.515Z,11372.00
2023-02-14T08:47:32.469Z,11856.00
2023-02-14T08:48:33.495Z,12632.00
2023-02-14T08:49:32.400Z,13600.00
2023-02-14T08:50:32.478Z,13376.00
2023-02-14T08:51:32.355Z,12864.00
2023-02-14T08:52:32.406Z,12968.00
2023-02-14T08:53:32.344Z,13348.00
2023-02-14T08:54:32.385Z,14296.00
2023-02-14T08:55:32.336Z,14764.00
2023-02-14T08:56:32.396Z,15056.00
2023-02-14T08:57:32.288Z,14556.00
2023-02-14T08:58:32.867Z,15140.00
2023-02-14T08:59:32.307Z,17248.00
2023-02-14T09:00:32.458Z,18560.00
2023-02-14T09:01:32.310Z,16128.00
2023-02-14T09:02:32.356Z,15344.00
2023-02-14T09:03:32.303Z,15112.00
2023-02-14T09:04:32.410Z,15400.00
2023-02-14T09:05:32.224Z,17056.00
2023-02-14T09:06:32.262Z,19776.00
2023-02-14T09:07:32.186Z,22656.00
2023-02-14T09:08:33.238Z,27008.00
2023-02-14T09:09:32.161Z,30144.00
2023-02-14T09:10:32.247Z,26528.00
2023-02-14T09:11:32.139Z,27808.00
2023-02-14T09:12:32.198Z,26592.00
2023-02-14T09:13:32.116Z,32032.00
2023-02-14T09:14:32.262Z,27200.00
2023-02-14T09:15:32.143Z,27424.00
2023-02-14T09:16:32.168Z,30592.00
2023-02-14T09:17:32.096Z,39040.00
2023-02-14T09:18:32.158Z,39936.00
2023-02-14T09:19:32.101Z,35712.00
2023-02-14T09:20:32.194Z,31072.00
2023-02-14T09:21:32.043Z,28192.00
2023-02-14T09:22:32.101Z,31136.00
2023-02-14T09:23:32.011Z,29824.00
2023-02-14T09:24:32.094Z,30016.00
2023-02-14T09:25:32.217Z,28864.00
2023-02-14T09:26:31.990Z,32768.00
2023-02-14T09:27:31.964Z,31456.00
2023-02-14T09:28:33.058Z,30752.00
2023-02-14T09:29:31.940Z,27840.00
2023-02-14T09:30:31.981Z,26720.00
2023-02-14T09:31:32.039Z,27904.00
2023-02-14T09:32:53.967Z,33856.00
2023-02-14T09:33:31.889Z,46688.00
2023-02-14T09:34:31.887Z,48928.00
2023-02-14T09:35:32.005Z,46592.00
2023-02-14T09:36:31.869Z,39232.00
2023-02-14T09:37:32.902Z,46496.00
2023-02-14T09:38:31.840Z,52576.00
2023-02-14T09:39:31.873Z,53824.00
2023-02-14T09:40:31.839Z,43520.00
2023-02-14T09:41:31.894Z,41408.00
2023-02-14T09:42:31.802Z,50720.00
2023-02-14T09:43:31.800Z,50304.00
2023-02-14T09:44:31.775Z,54528.00
2023-02-14T09:45:31.931Z,53632.00
2023-02-14T09:46:31.778Z,52256.00
2023-02-14T09:47:31.858Z,55744.00
2023-02-14T09:48:31.762Z,58624.00
2023-02-14T09:49:31.947Z,57888.00
2023-02-14T09:50:31.725Z,59520.00
2023-02-14T09:51:31.753Z,58880.00
2023-02-14T09:52:31.686Z,58528.00
2023-02-14T09:53:31.768Z,56160.00
2023-02-14T09:54:31.667Z,62208.00
2023-02-14T09:55:31.730Z,62240.00
2023-02-14T09:56:37.253Z,61216.00
2023-02-14T09:57:32.630Z,61504.00
2023-02-14T09:58:31.707Z,60448.00
2023-02-14T09:59:31.611Z,60672.00
2023-02-14T10:00:31.667Z,61920.00
2023-02-14T10:01:31.643Z,63936.00
2023-02-14T10:02:31.634Z,61792.00
2023-02-14T10:03:31.564Z,62304.00
2023-02-14T10:04:31.685Z,62592.00
2023-02-14T10:05:31.562Z,65792.00
2023-02-14T10:06:31.549Z,68576.00
2023-02-14T10:07:31.521Z,67808.00
2023-02-14T10:08:31.578Z,65408.00
2023-02-14T10:09:31.523Z,69536.00
2023-02-14T10:10:31.534Z,72768.00
2023-02-14T10:11:31.498Z,73088.00
2023-02-14T10:12:31.488Z,74720.00
2023-02-14T10:13:31.466Z,75328.00
2023-02-14T10:14:32.545Z,73760.00
2023-02-14T10:15:31.478Z,73184.00
2023-02-14T10:16:32.530Z,73120.00
2023-02-14T10:17:31.428Z,75488.00
2023-02-14T10:18:33.490Z,78016.00
2023-02-14T10:19:31.404Z,77152.00
2023-02-14T10:20:31.524Z,74048.00
2023-02-14T10:21:31.373Z,74240.00
2023-02-14T10:22:32.383Z,77024.00
2023-02-14T10:23:31.347Z,78880.00
2023-02-14T10:24:31.385Z,78528.00
2023-02-14T10:25:31.338Z,80416.00
2023-02-14T10:26:31.398Z,80224.00
2023-02-14T10:27:31.316Z,81376.00
2023-02-14T10:28:31.397Z,78816.00
2023-02-14T10:29:31.283Z,77632.00
2023-02-14T10:30:31.611Z,80640.00
2023-02-14T10:31:31.376Z,84992.00
2023-02-14T10:32:31.323Z,84576.00
2023-02-14T10:33:31.246Z,83648.00
2023-02-14T10:34:31.335Z,83040.00
2023-02-14T10:35:31.239Z,83648.00
2023-02-14T10:36:31.265Z,86464.00
2023-02-14T10:37:31.188Z,85504.00
2023-02-14T10:38:31.277Z,85088.00
2023-02-14T10:39:31.183Z,84032.00
2023-02-14T10:40:31.231Z,84864.00
2023-02-14T10:41:31.171Z,87264.00
2023-02-14T10:42:31.206Z,87232.00
2023-02-14T10:43:31.143Z,88032.00
2023-02-14T10:44:31.265Z,86976.00
2023-02-14T10:45:31.143Z,83904.00
2023-02-14T10:46:31.150Z,88064.00
2023-02-14T10:47:31.092Z,91168.00
2023-02-14T10:48:31.148Z,89568.00
2023-02-14T10:49:31.058Z,89344.00
2023-02-14T10:50:31.110Z,89664.00
2023-02-14T10:51:33.738Z,89568.00
2023-02-14T10:52:31.169Z,86016.00
2023-02-14T10:53:31.031Z,85440.00
2023-02-14T10:54:31.091Z,84672.00
2023-02-14T10:55:32.712Z,86816.00
2023-02-14T10:56:31.109Z,88096.00
2023-02-14T10:57:30.990Z,91520.00
2023-02-14T10:58:33.089Z,89824.00
2023-02-14T10:59:31.050Z,87456.00
2023-02-14T11:00:31.061Z,89024.00
2023-02-14T11:01:30.958Z,89728.00
2023-02-14T11:02:32.060Z,90560.00
2023-02-14T11:03:31.026Z,88672.00
2023-02-14T11:04:30.932Z,90112.00
2023-02-14T11:05:30.904Z,89824.00
2023-02-14T11:06:31.992Z,90496.00
2023-02-14T11:07:30.866Z,91456.00
2023-02-14T11:08:30.973Z,89728.00
2023-02-14T11:09:30.847Z,87776.00
2023-02-14T11:10:30.934Z,84096.00
2023-02-14T11:11:30.843Z,83008.00
2023-02-14T11:12:30.904Z,84480.00
2023-02-14T11:13:30.813Z,83520.00
2023-02-14T11:14:30.918Z,88512.00
2023-02-14T11:15:30.794Z,90368.00
2023-02-14T11:16:30.906Z,92544.00
2023-02-14T11:17:31.044Z,92032.00
2023-02-14T11:18:30.827Z,94144.00
2023-02-14T11:19:30.742Z,94976.00
2023-02-14T11:20:30.870Z,92512.00
2023-02-14T11:21:30.731Z,94016.00
2023-02-14T11:22:30.752Z,90816.00
2023-02-14T11:23:30.692Z,88704.00
2023-02-14T11:24:30.889Z,88224.00
2023-02-14T11:25:30.677Z,95008.00
2023-02-14T11:26:30.733Z,97088.00
2023-02-14T11:27:30.654Z,96800.00
2023-02-14T11:28:30.689Z,95168.00
2023-02-14T11:29:30.649Z,92672.00
2023-02-14T11:30:30.866Z,92704.00
2023-02-14T11:31:30.821Z,96160.00
2023-02-14T11:32:30.629Z,95392.00
2023-02-14T11:33:30.612Z,96352.00
2023-02-14T11:34:30.628Z,97056.00
2023-02-14T11:35:30.562Z,96736.00
2023-02-14T11:36:30.599Z,99200.00
2023-02-14T11:37:30.541Z,95744.00
2023-02-14T11:38:30.660Z,99328.00
2023-02-14T11:39:30.520Z,98464.00
2023-02-14T11:40:30.600Z,97504.00
2023-02-14T11:41:30.555Z,101088.00
2023-02-14T11:42:30.590Z,101472.00
2023-02-14T11:43:30.483Z,97728.00
2023-02-14T11:45:40.071Z,96896.00
2023-02-14T11:46:52.379Z,112384.00
2023-02-14T11:47:40.962Z,81152.00
2023-02-14T11:48:40.050Z,114560.00
2023-02-14T11:49:39.936Z,79712.00
2023-02-14T11:50:40.554Z,113312.00
2023-02-14T11:51:39.933Z,101920.00
2023-02-14T11:52:42.033Z,79968.00
2023-02-14T11:53:39.894Z,125440.00
2023-02-14T11:55:02.948Z,86784.00
2023-02-14T11:55:39.884Z,92128.00
2023-02-14T11:56:40.557Z,118208.00
2023-02-14T11:57:39.857Z,82528.00
2023-02-14T11:59:00.901Z,92640.00
2023-02-14T11:59:39.834Z,121472.00
2023-02-14T12:00:40.861Z,96800.00
2023-02-14T12:01:39.837Z,95808.00
2023-02-14T12:02:39.925Z,118560.00
2023-02-14T12:03:39.817Z,92064.00
2023-02-14T12:04:46.093Z,87456.00
2023-02-14T12:05:40.768Z,116320.00
2023-02-14T12:06:39.814Z,104320.00
2023-02-14T12:07:39.756Z,91392.00
2023-02-14T12:08:39.769Z,118464.00
2023-02-14T12:09:39.732Z,110624.00
2023-02-14T12:10:39.815Z,89856.00
2023-02-14T12:11:39.744Z,106400.00
2023-02-14T12:12:39.801Z,122688.00
2023-02-14T12:13:39.682Z,95296.00
2023-02-14T12:14:39.711Z,98112.00
2023-02-14T12:15:39.740Z,127584.00
2023-02-14T12:16:39.786Z,105920.00
2023-02-14T12:17:39.639Z,93184.00
2023-02-14T12:18:39.753Z,120096.00
2023-02-14T12:19:39.743Z,118912.00
2023-02-14T12:20:39.735Z,92800.00
2023-02-14T12:21:39.619Z,106688.00
2023-02-14T12:22:39.671Z,123360.00
2023-02-14T12:23:39.602Z,101408.00
2023-02-14T12:24:39.683Z,96224.00
2023-02-14T12:25:39.557Z,116736.00
2023-02-14T12:26:39.645Z,108864.00
2023-02-14T12:27:39.542Z,90688.00
2023-02-14T12:28:39.739Z,103904.00
2023-02-14T12:29:39.513Z,113600.00
2023-02-14T12:30:39.631Z,95904.00
2023-02-14T12:31:39.651Z,95872.00
2023-02-14T12:32:39.547Z,113088.00
2023-02-14T12:33:39.522Z,109280.00
2023-02-14T12:34:39.555Z,100096.00
2023-02-14T12:35:39.448Z,104704.00
2023-02-14T12:36:39.562Z,113984.00